createdAt,value
2022-08-28T00:00:56.757Z,9.661544
2022-08-28T00:01:56.748Z,9.661508
2022-08-28T00:02:56.812Z,9.661532
2022-08-28T00:03:56.721Z,9.661520
2022-08-28T00:04:56.792Z,9.661550
2022-08-28T00:05:56.750Z,9.661501
2022-08-28T00:06:56.701Z,9.661518
2022-08-28T00:07:56.771Z,9.661514
2022-08-28T00:08:56.695Z,9.661549
2022-08-28T00:09:56.692Z,9.661530
2022-08-28T00:10:56.678Z,9.661495
2022-08-28T00:11:56.702Z,9.661508
2022-08-28T00:12:56.673Z,9.661455
2022-08-28T00:13:56.785Z,9.661440
2022-08-28T00:14:56.665Z,9.661528
2022-08-28T00:15:56.674Z,9.661444
2022-08-28T00:16:56.646Z,9.661469
2022-08-28T00:17:56.641Z,9.661437
2022-08-28T00:18:56.619Z,9.661490
2022-08-28T00:19:56.638Z,9.661555
2022-08-28T00:20:56.639Z,9.661572
2022-08-28T00:21:56.658Z,9.661511
2022-08-28T00:22:56.713Z,9.661531
2022-08-28T00:23:56.635Z,9.661526
2022-08-28T00:24:56.596Z,9.661493
2022-08-28T00:25:56.608Z,9.661521
2022-08-28T00:26:56.598Z,9.661493
2022-08-28T00:27:56.628Z,9.661524
2022-08-28T00:28:56.583Z,9.661558
2022-08-28T00:29:56.570Z,9.661530
2022-08-28T00:30:56.656Z,9.661493
2022-08-28T00:31:56.569Z,9.661498
2022-08-28T00:32:56.542Z,9.661495
2022-08-28T00:33:56.593Z,9.661501
2022-08-28T00:34:56.551Z,9.661538
2022-08-28T00:35:56.533Z,9.661610
2022-08-28T00:36:56.533Z,9.661498
2022-08-28T00:37:56.533Z,9.661458
2022-08-28T00:38:56.548Z,9.661459
2022-08-28T00:39:56.538Z,9.661474
2022-08-28T00:40:56.534Z,9.661466
2022-08-28T00:41:57.168Z,9.661503
2022-08-28T00:42:56.511Z,9.661553
2022-08-28T00:43:56.484Z,9.661432
2022-08-28T00:44:57.596Z,9.661491
2022-08-28T00:45:56.491Z,9.661537
2022-08-28T00:46:56.483Z,9.661535
2022-08-28T00:47:56.501Z,9.661493
2022-08-28T00:48:56.462Z,9.661483
2022-08-28T00:49:56.465Z,9.661530
2022-08-28T00:50:59.077Z,9.661476
2022-08-28T00:51:56.434Z,9.661470
2022-08-28T00:52:56.434Z,9.661465
2022-08-28T00:53:58.795Z,9.661540
2022-08-28T00:54:59.730Z,9.661504
2022-08-28T00:55:56.542Z,9.661425
2022-08-28T00:56:56.410Z,9.661483
2022-08-28T00:57:56.414Z,9.661478
2022-08-28T00:58:56.407Z,9.661528
2022-08-28T00:59:56.414Z,9.661469
2022-08-28T01:00:56.386Z,9.661472
2022-08-28T01:01:57.542Z,9.661479
2022-08-28T01:02:56.417Z,9.661492
2022-08-28T01:03:56.371Z,9.661651
2022-08-28T01:04:56.351Z,9.661495
2022-08-28T01:05:56.365Z,9.661398
2022-08-28T01:06:56.359Z,9.661426
2022-08-28T01:07:56.393Z,9.661489
2022-08-28T01:08:56.340Z,9.661551
2022-08-28T01:09:56.333Z,9.661542
2022-08-28T01:10:56.348Z,9.661585
2022-08-28T01:11:56.324Z,9.661533
2022-08-28T01:12:56.440Z,9.661574
2022-08-28T01:13:56.317Z,9.661698
2022-08-28T01:14:56.304Z,9.661642
2022-08-28T01:15:56.362Z,9.661643
2022-08-28T01:16:56.304Z,9.661435
2022-08-28T01:17:56.294Z,9.661651
2022-08-28T01:18:56.299Z,9.661549
2022-08-28T01:19:57.292Z,9.661584
2022-08-28T01:20:56.280Z,9.661559
2022-08-28T01:21:56.259Z,9.661471
2022-08-28T01:22:56.280Z,9.661521
2022-08-28T01:23:56.278Z,9.661522
2022-08-28T01:24:56.267Z,9.661640
2022-08-28T01:25:56.275Z,9.661318
2022-08-28T01:26:56.244Z,9.661357
2022-08-28T01:27:56.241Z,9.661551
2022-08-28T01:28:56.231Z,9.661566
2022-08-28T01:29:56.348Z,9.661697
2022-08-28T01:30:56.300Z,9.661710
2022-08-28T01:31:56.272Z,9.661606
2022-08-28T01:32:56.222Z,9.661442
2022-08-28T01:33:56.211Z,9.661677
2022-08-28T01:34:56.316Z,9.661604
2022-08-28T01:35:56.237Z,9.661697
2022-08-28T01:36:56.188Z,9.661708
2022-08-28T01:37:56.187Z,9.661765
2022-08-28T01:38:56.186Z,9.661847
2022-08-28T01:39:56.200Z,9.661605
2022-08-28T01:40:56.204Z,9.661484
2022-08-28T01:41:56.223Z,9.661567
2022-08-28T01:42:56.151Z,9.661722
2022-08-28T01:43:56.146Z,9.661315
2022-08-28T01:44:56.145Z,9.661311
2022-08-28T01:45:56.324Z,9.661200
2022-08-28T01:46:56.124Z,9.661718
2022-08-28T01:47:56.114Z,9.661428
2022-08-28T01:48:56.118Z,9.661747
2022-08-28T01:49:56.126Z,9.661731
2022-08-28T01:50:56.124Z,9.661703
2022-08-28T01:51:56.134Z,9.661734
2022-08-28T01:52:56.094Z,9.661662
2022-08-28T01:53:56.082Z,9.661586
2022-08-28T01:54:56.078Z,9.661497
2022-08-28T01:55:56.096Z,9.661464
2022-08-28T01:56:56.133Z,9.661810
2022-08-28T01:57:56.058Z,9.661569
2022-08-28T01:58:56.069Z,9.661469
2022-08-28T01:59:56.073Z,9.661508
2022-08-28T02:00:56.031Z,9.661503
2022-08-28T02:01:56.086Z,9.661361
2022-08-28T02:02:56.150Z,9.661527
2022-08-28T02:03:56.111Z,9.661530
2022-08-28T02:04:56.024Z,9.661506
2022-08-28T02:05:56.012Z,9.661565
2022-08-28T02:06:56.017Z,9.661543
2022-08-28T02:07:56.129Z,9.661613
2022-08-28T02:08:56.010Z,9.661414
2022-08-28T02:09:56.735Z,9.661352
2022-08-28T02:10:55.997Z,9.661542
2022-08-28T02:11:56.002Z,9.661523
2022-08-28T02:12:55.972Z,9.661662
2022-08-28T02:13:56.325Z,9.661591
2022-08-28T02:14:55.974Z,9.661601
2022-08-28T02:15:56.026Z,9.661580
2022-08-28T02:16:55.954Z,9.661522
2022-08-28T02:17:55.933Z,9.661540
2022-08-28T02:18:55.972Z,9.661602
2022-08-28T02:19:55.942Z,9.661562
2022-08-28T02:20:55.915Z,9.661552
2022-08-28T02:21:55.915Z,9.661654
2022-08-28T02:22:55.922Z,9.661652
2022-08-28T02:23:55.915Z,9.661622
2022-08-28T02:24:55.915Z,9.661565
2022-08-28T02:25:55.915Z,9.661520
2022-08-28T02:26:55.898Z,9.661582
2022-08-28T02:27:55.879Z,9.661588
2022-08-28T02:28:55.866Z,9.661565
2022-08-28T02:29:55.983Z,9.661567
2022-08-28T02:30:55.906Z,9.661523
2022-08-28T02:31:55.875Z,9.661584
2022-08-28T02:32:55.858Z,9.661552
2022-08-28T02:33:55.902Z,9.661653
2022-08-28T02:34:55.851Z,9.661717
2022-08-28T02:35:55.849Z,9.661515
2022-08-28T02:36:56.739Z,9.661600
2022-08-28T02:37:55.830Z,9.661573
2022-08-28T02:38:57.916Z,9.661457
2022-08-28T02:39:56.906Z,9.661562
2022-08-28T02:40:55.845Z,9.661546
2022-08-28T02:41:55.801Z,9.661511
2022-08-28T02:42:55.801Z,9.661622
2022-08-28T02:43:55.791Z,9.661545
2022-08-28T02:44:55.784Z,9.661572
2022-08-28T02:45:55.840Z,9.661465
2022-08-28T02:46:55.876Z,9.661510
2022-08-28T02:47:55.773Z,9.661366
2022-08-28T02:48:55.768Z,9.661486
2022-08-28T02:49:55.765Z,9.661598
2022-08-28T02:50:55.759Z,9.661569
2022-08-28T02:51:55.776Z,9.661632
2022-08-28T02:52:55.734Z,9.661632
2022-08-28T02:53:55.739Z,9.661696
2022-08-28T02:54:55.730Z,9.661765
2022-08-28T02:55:55.725Z,9.661520
2022-08-28T02:56:55.722Z,9.661695
2022-08-28T02:57:55.810Z,9.661797
2022-08-28T02:58:55.714Z,9.661562
2022-08-28T02:59:55.702Z,9.661521
2022-08-28T03:00:55.765Z,9.661655
2022-08-28T03:01:55.685Z,9.661623
2022-08-28T03:02:55.744Z,9.661555
2022-08-28T03:03:55.663Z,9.661665
2022-08-28T03:04:55.666Z,9.661638
2022-08-28T03:05:55.656Z,9.661735
2022-08-28T03:06:55.668Z,9.661516
2022-08-28T03:07:55.644Z,9.661371
2022-08-28T03:08:55.654Z,9.661374
2022-08-28T03:09:55.641Z,9.661452
2022-08-28T03:10:55.635Z,9.661619
2022-08-28T03:11:55.616Z,9.661574
2022-08-28T03:12:55.604Z,9.661520
2022-08-28T03:13:55.641Z,9.661396
2022-08-28T03:14:55.602Z,9.661644
2022-08-28T03:15:56.054Z,9.661747
2022-08-28T03:16:55.638Z,9.661408
2022-08-28T03:17:55.610Z,9.661537
2022-08-28T03:18:55.580Z,9.661682
2022-08-28T03:19:55.598Z,9.661695
2022-08-28T03:20:55.602Z,9.661842
2022-08-28T03:21:55.560Z,9.661839
2022-08-28T03:22:55.561Z,9.661860
2022-08-28T03:23:55.542Z,9.661790
2022-08-28T03:24:55.573Z,9.661628
2022-08-28T03:25:55.542Z,9.661423
2022-08-28T03:26:55.548Z,9.661609
2022-08-28T03:27:55.556Z,9.661810
2022-08-28T03:28:55.536Z,9.661682
2022-08-28T03:29:55.516Z,9.661403
2022-08-28T03:30:55.642Z,9.661641
2022-08-28T03:31:55.517Z,9.661479
2022-08-28T03:32:55.505Z,9.661365
2022-08-28T03:33:58.259Z,9.661220
2022-08-28T03:34:55.504Z,9.661392
2022-08-28T03:35:55.532Z,9.661487
2022-08-28T03:36:55.481Z,9.662004
2022-08-28T03:37:55.475Z,9.662272
2022-08-28T03:38:55.474Z,9.662165
2022-08-28T03:39:55.481Z,9.661738
2022-08-28T03:40:55.463Z,9.661695
2022-08-28T03:41:55.477Z,9.661682
2022-08-28T03:42:55.458Z,9.661332
2022-08-28T03:43:55.458Z,9.661635
2022-08-28T03:44:55.440Z,9.661435
2022-08-28T03:45:55.477Z,9.661659
2022-08-28T03:46:55.548Z,9.661596
2022-08-28T03:47:55.432Z,9.661581
2022-08-28T03:48:55.425Z,9.661547
2022-08-28T03:49:55.436Z,9.661584
2022-08-28T03:50:55.425Z,9.661520
2022-08-28T03:51:55.399Z,9.661397
2022-08-28T03:52:55.509Z,9.661627
2022-08-28T03:53:55.405Z,9.661556
2022-08-28T03:54:55.381Z,9.661386
2022-08-28T03:55:55.372Z,9.661534
2022-08-28T03:56:55.364Z,9.661425
2022-08-28T03:57:55.411Z,9.661474
2022-08-28T03:58:55.356Z,9.661474
2022-08-28T03:59:55.349Z,9.661496
2022-08-28T04:00:55.394Z,9.661577
2022-08-28T04:01:55.356Z,9.661485
2022-08-28T04:02:55.391Z,9.661434
2022-08-28T04:03:55.397Z,9.661533
2022-08-28T04:04:55.342Z,9.661544
2022-08-28T04:05:55.333Z,9.661661
2022-08-28T04:06:55.324Z,9.661607
2022-08-28T04:07:55.319Z,9.661553
2022-08-28T04:08:55.441Z,9.661461
2022-08-28T04:09:55.309Z,9.661501
2022-08-28T04:10:55.290Z,9.661528
2022-08-28T04:11:55.281Z,9.661547
2022-08-28T04:12:55.281Z,9.661484
2022-08-28T04:13:55.267Z,9.661489
2022-08-28T04:14:55.293Z,9.661420
2022-08-28T04:15:55.265Z,9.661442
2022-08-28T04:16:58.568Z,9.661383
2022-08-28T04:17:57.249Z,9.661427
2022-08-28T04:18:55.260Z,9.661541
2022-08-28T04:19:55.339Z,9.661592
2022-08-28T04:20:55.354Z,9.661570
2022-08-28T04:21:55.229Z,9.661625
2022-08-28T04:22:55.391Z,9.661628
2022-08-28T04:23:55.219Z,9.661543
2022-08-28T04:24:55.210Z,9.661574
2022-08-28T04:25:55.249Z,9.661463
2022-08-28T04:26:55.194Z,9.661464
2022-08-28T04:27:55.203Z,9.661448
2022-08-28T04:28:55.227Z,9.661530
2022-08-28T04:29:55.194Z,9.661507
2022-08-28T04:30:55.200Z,9.661498
2022-08-28T04:31:55.255Z,9.661474
2022-08-28T04:32:55.192Z,9.661467
2022-08-28T04:33:55.156Z,9.661485
2022-08-28T04:34:55.144Z,9.661564
2022-08-28T04:35:55.137Z,9.661460
2022-08-28T04:36:55.258Z,9.661566
2022-08-28T04:37:58.720Z,9.661484
2022-08-28T04:38:55.137Z,9.661530
2022-08-28T04:39:55.153Z,9.661537
2022-08-28T04:40:55.126Z,9.661526
2022-08-28T04:41:55.141Z,9.661477
2022-08-28T04:42:55.124Z,9.661503
2022-08-28T04:43:55.097Z,9.661500
2022-08-28T04:44:55.106Z,9.661518
2022-08-28T04:45:55.168Z,9.661538
2022-08-28T04:46:55.090Z,9.661469
2022-08-28T04:47:55.107Z,9.661451
2022-08-28T04:48:55.068Z,9.661427
2022-08-28T04:49:55.079Z,9.661551
2022-08-28T04:50:55.117Z,9.661484
2022-08-28T04:51:55.054Z,9.661477
2022-08-28T04:52:55.081Z,9.661468
2022-08-28T04:53:55.053Z,9.661645
2022-08-28T04:54:55.050Z,9.661690
2022-08-28T04:55:55.429Z,9.661567
2022-08-28T04:56:55.021Z,9.661588
2022-08-28T04:57:55.024Z,9.661637
2022-08-28T04:58:55.060Z,9.661553
2022-08-28T04:59:55.014Z,9.661514
2022-08-28T05:00:55.163Z,9.661460
2022-08-28T05:01:55.061Z,9.661407
2022-08-28T05:02:54.993Z,9.661479
2022-08-28T05:03:55.095Z,9.661383
2022-08-28T05:04:54.996Z,9.661495
2022-08-28T05:05:54.972Z,9.661242
2022-08-28T05:06:54.965Z,9.661504
2022-08-28T05:07:54.981Z,9.661612
2022-08-28T05:08:54.958Z,9.661431
2022-08-28T05:09:54.990Z,9.661422
2022-08-28T05:10:54.974Z,9.661340
2022-08-28T05:11:54.947Z,9.661374
2022-08-28T05:12:54.940Z,9.661394
2022-08-28T05:13:54.977Z,9.661444
2022-08-28T05:14:54.948Z,9.661447
2022-08-28T05:15:54.959Z,9.661529
2022-08-28T05:16:54.919Z,9.661485
2022-08-28T05:17:54.949Z,9.661470
2022-08-28T05:18:54.916Z,9.661425
2022-08-28T05:19:54.896Z,9.661448
2022-08-28T05:20:54.912Z,9.661405
2022-08-28T05:21:54.884Z,9.661435
2022-08-28T05:22:54.889Z,9.661401
2022-08-28T05:23:54.869Z,9.661403
2022-08-28T05:24:54.867Z,9.661386
2022-08-28T05:25:54.880Z,9.661377
2022-08-28T05:26:54.844Z,9.661331
2022-08-28T05:27:54.843Z,9.661250
2022-08-28T05:28:54.881Z,9.661275
2022-08-28T05:29:57.347Z,9.661298
2022-08-28T05:30:56.929Z,9.661571
2022-08-28T05:31:54.869Z,9.661264
2022-08-28T05:32:54.817Z,9.661496
2022-08-28T05:33:54.817Z,9.661530
2022-08-28T05:34:54.818Z,9.661421
2022-08-28T05:35:54.798Z,9.661334
2022-08-28T05:36:54.817Z,9.661373
2022-08-28T05:37:54.807Z,9.661472
2022-08-28T05:38:54.773Z,9.661572
2022-08-28T05:39:54.809Z,9.661587
2022-08-28T05:40:54.776Z,9.661381
2022-08-28T05:41:54.782Z,9.661526
2022-08-28T05:42:54.755Z,9.661452
2022-08-28T05:43:55.656Z,9.661406
2022-08-28T05:44:54.846Z,9.661623
2022-08-28T05:45:54.788Z,9.661553
2022-08-28T05:46:54.738Z,9.661456
2022-08-28T05:47:54.761Z,9.661492
2022-08-28T05:48:54.738Z,9.661538
2022-08-28T05:49:54.722Z,9.661793
2022-08-28T05:50:54.724Z,9.661673
2022-08-28T05:51:54.707Z,9.661694
2022-08-28T05:52:54.728Z,9.661739
2022-08-28T05:53:54.705Z,9.661593
2022-08-28T05:54:54.709Z,9.661547
2022-08-28T05:55:54.673Z,9.661761
2022-08-28T05:56:54.671Z,9.661458
2022-08-28T05:57:54.682Z,9.661241
2022-08-28T05:58:54.685Z,9.661601
2022-08-28T05:59:54.648Z,9.661386
2022-08-28T06:00:54.647Z,9.661490
2022-08-28T06:01:54.723Z,9.661304
2022-08-28T06:02:54.633Z,9.661253
2022-08-28T06:03:54.723Z,9.661435
2022-08-28T06:04:55.153Z,9.661238
2022-08-28T06:05:54.633Z,9.661562
2022-08-28T06:06:54.613Z,9.661638
2022-08-28T06:07:54.624Z,9.661163
2022-08-28T06:08:58.085Z,9.661288
2022-08-28T06:09:54.616Z,9.661281
2022-08-28T06:10:54.613Z,9.661441
2022-08-28T06:11:54.591Z,9.661439
2022-08-28T06:12:54.577Z,9.661577
2022-08-28T06:13:54.588Z,9.661385
2022-08-28T06:14:54.602Z,9.661579
2022-08-28T06:15:54.585Z,9.661642
2022-08-28T06:16:54.564Z,9.661741
2022-08-28T06:17:54.565Z,9.661690
2022-08-28T06:18:54.545Z,9.661871
2022-08-28T06:19:54.545Z,9.661997
2022-08-28T06:20:54.556Z,9.661571
2022-08-28T06:21:54.539Z,9.661534
2022-08-28T06:22:54.533Z,9.661494
2022-08-28T06:23:54.532Z,9.661418
2022-08-28T06:24:54.512Z,9.661424
2022-08-28T06:25:54.622Z,9.661382
2022-08-28T06:26:57.467Z,9.661558
2022-08-28T06:27:54.492Z,9.661562
2022-08-28T06:28:54.503Z,9.661465
2022-08-28T06:29:54.490Z,9.661478
2022-08-28T06:31:18.639Z,9.661519
2022-08-28T06:31:54.572Z,9.661602
2022-08-28T06:32:54.486Z,9.661530
2022-08-28T06:33:54.481Z,9.661385
2022-08-28T06:34:54.461Z,9.661328
2022-08-28T06:35:54.463Z,9.661723
2022-08-28T06:36:54.590Z,9.661618
2022-08-28T06:37:54.500Z,9.661555
2022-08-28T06:38:54.451Z,9.661466
2022-08-28T06:39:54.485Z,9.661470
2022-08-28T06:40:54.434Z,9.661497
2022-08-28T06:41:54.455Z,9.661503
2022-08-28T06:42:54.526Z,9.661489
2022-08-28T06:43:54.439Z,9.661466
2022-08-28T06:44:54.418Z,9.661469
2022-08-28T06:45:54.487Z,9.661434
2022-08-28T06:46:54.398Z,9.661389
2022-08-28T06:47:54.500Z,9.661364
2022-08-28T06:48:54.390Z,9.661407
2022-08-28T06:49:54.380Z,9.661352
2022-08-28T06:50:54.377Z,9.661381
2022-08-28T06:51:55.366Z,9.661473
2022-08-28T06:52:54.377Z,9.661489
2022-08-28T06:53:54.455Z,9.661468
2022-08-28T06:54:55.811Z,9.661378
2022-08-28T06:55:54.361Z,9.661971
2022-08-28T06:56:54.351Z,9.661741
2022-08-28T06:57:54.356Z,9.661719
2022-08-28T06:58:54.483Z,9.661385
2022-08-28T06:59:54.353Z,9.661549
2022-08-28T07:01:02.308Z,9.661548
2022-08-28T07:01:56.517Z,9.661303
2022-08-28T07:02:54.344Z,9.661415
2022-08-28T07:03:54.320Z,9.661442
2022-08-28T07:04:54.325Z,9.661545
2022-08-28T07:05:54.289Z,9.661658
2022-08-28T07:06:54.908Z,9.661454
2022-08-28T07:07:54.282Z,9.661617
2022-08-28T07:08:54.281Z,9.661880
2022-08-28T07:09:54.429Z,9.661787
2022-08-28T07:10:54.270Z,9.661656
2022-08-28T07:11:54.265Z,9.661624
2022-08-28T07:12:54.277Z,9.661633
2022-08-28T07:13:54.261Z,9.661465
2022-08-28T07:14:54.240Z,9.661511
2022-08-28T07:15:54.341Z,9.661529
2022-08-28T07:16:54.243Z,9.661508
2022-08-28T07:17:54.247Z,9.661371
2022-08-28T07:18:54.226Z,9.661180
2022-08-28T07:19:54.218Z,9.661363
2022-08-28T07:20:54.335Z,9.661439
2022-08-28T07:21:54.247Z,9.661588
2022-08-28T07:22:59.439Z,9.661864
2022-08-28T07:23:54.192Z,9.661785
2022-08-28T07:24:54.191Z,9.661661
2022-08-28T07:25:54.195Z,9.661551
2022-08-28T07:26:54.301Z,9.661475
2022-08-28T07:27:54.202Z,9.661444
2022-08-28T07:29:09.596Z,9.661403
2022-08-28T07:29:55.161Z,9.661456
2022-08-28T07:30:54.205Z,9.661356
2022-08-28T07:31:54.172Z,9.661325
2022-08-28T07:32:54.162Z,9.661518
2022-08-28T07:33:54.256Z,9.661528
2022-08-28T07:34:54.133Z,9.661623
2022-08-28T07:35:54.145Z,9.661666
2022-08-28T07:36:54.123Z,9.661624
2022-08-28T07:37:54.242Z,9.661672
2022-08-28T07:38:54.106Z,9.661604
2022-08-28T07:39:54.165Z,9.661585
2022-08-28T07:40:54.104Z,9.661572
2022-08-28T07:41:54.108Z,9.661506
2022-08-28T07:42:54.112Z,9.661511
2022-08-28T07:43:54.076Z,9.661559
2022-08-28T07:44:54.106Z,9.661669
2022-08-28T07:45:54.171Z,9.661689
2022-08-28T07:46:54.070Z,9.661713
2022-08-28T07:47:54.064Z,9.661551
2022-08-28T07:48:54.078Z,9.661506
2022-08-28T07:49:54.045Z,9.661801
2022-08-28T07:50:55.049Z,9.661628
2022-08-28T07:51:54.578Z,9.661674
2022-08-28T07:52:54.024Z,9.661662
2022-08-28T07:53:54.134Z,9.661581
2022-08-28T07:54:54.021Z,9.661583
2022-08-28T07:55:54.018Z,9.661642
2022-08-28T07:56:54.005Z,9.661643
2022-08-28T07:57:54.045Z,9.661695
2022-08-28T07:58:54.055Z,9.661729
2022-08-28T07:59:54.114Z,9.661630
2022-08-28T08:00:53.994Z,9.661534
2022-08-28T08:01:54.038Z,9.661547
2022-08-28T08:02:53.972Z,9.661506
2022-08-28T08:03:55.957Z,9.661572
2022-08-28T08:04:55.082Z,9.661559
2022-08-28T08:05:53.967Z,9.661502
2022-08-28T08:06:57.727Z,9.661622
2022-08-28T08:07:53.953Z,9.661831
2022-08-28T08:08:53.949Z,9.661524
2022-08-28T08:09:53.952Z,9.661526
2022-08-28T08:10:53.967Z,9.661736
2022-08-28T08:11:53.952Z,9.661800
2022-08-28T08:12:53.932Z,9.661824
2022-08-28T08:13:53.939Z,9.661882
2022-08-28T08:14:53.922Z,9.661979
2022-08-28T08:15:53.971Z,9.662015
2022-08-28T08:16:53.925Z,9.661913
2022-08-28T08:17:53.900Z,9.661879
2022-08-28T08:18:53.913Z,9.661936
2022-08-28T08:19:54.260Z,9.661821
2022-08-28T08:20:53.892Z,9.661892
2022-08-28T08:21:54.675Z,9.661778
2022-08-28T08:22:53.888Z,9.661910
2022-08-28T08:23:53.869Z,9.661653
2022-08-28T08:24:53.875Z,9.661791
2022-08-28T08:25:53.870Z,9.661841
2022-08-28T08:26:58.781Z,9.661929
2022-08-28T08:27:53.890Z,9.661978
2022-08-28T08:28:53.872Z,9.661981
2022-08-28T08:29:53.848Z,9.661973
2022-08-28T08:30:53.937Z,9.662035
2022-08-28T08:31:53.839Z,9.662064
2022-08-28T08:32:53.852Z,9.662233
2022-08-28T08:33:53.830Z,9.662179
2022-08-28T08:34:53.866Z,9.661582
2022-08-28T08:35:54.827Z,9.661571
2022-08-28T08:36:53.814Z,9.661599
2022-08-28T08:37:53.833Z,9.661639
2022-08-28T08:38:59.920Z,9.661547
2022-08-28T08:39:53.828Z,9.661620
2022-08-28T08:40:53.784Z,9.661532
2022-08-28T08:41:53.780Z,9.661633
2022-08-28T08:42:53.764Z,9.661644
2022-08-28T08:43:53.797Z,9.661577
2022-08-28T08:44:53.779Z,9.661567
2022-08-28T08:45:53.808Z,9.661564
2022-08-28T08:46:54.469Z,9.661624
2022-08-28T08:47:53.765Z,9.661533
2022-08-28T08:48:53.778Z,9.661407
2022-08-28T08:49:53.735Z,9.661425
2022-08-28T08:50:53.722Z,9.661459
2022-08-28T08:51:53.730Z,9.661446
2022-08-28T08:52:53.730Z,9.661439
2022-08-28T08:53:53.716Z,9.661516
2022-08-28T08:54:58.845Z,9.661484
2022-08-28T08:55:53.717Z,9.661501
2022-08-28T08:56:53.727Z,9.661469
2022-08-28T08:57:53.703Z,9.661523
2022-08-28T08:58:53.710Z,9.661569
2022-08-28T08:59:53.723Z,9.661667
2022-08-28T09:00:53.693Z,9.661473
2022-08-28T09:01:53.746Z,9.661492
2022-08-28T09:02:53.700Z,9.661364
2022-08-28T09:03:53.977Z,9.661453
2022-08-28T09:04:53.682Z,9.661430
2022-08-28T09:05:53.690Z,9.661477
2022-08-28T09:06:53.667Z,9.661551
2022-08-28T09:07:53.648Z,9.661532
2022-08-28T09:08:53.675Z,9.661477
2022-08-28T09:09:53.650Z,9.661370
2022-08-28T09:11:10.279Z,9.661330
2022-08-28T09:12:15.300Z,9.661384
2022-08-28T09:13:25.248Z,9.661495
2022-08-28T09:13:58.771Z,9.661551
2022-08-28T09:14:57.716Z,9.661665
2022-08-28T09:15:53.636Z,9.661521
2022-08-28T09:16:53.641Z,9.661473
2022-08-28T09:17:53.634Z,9.661469
2022-08-28T09:18:53.597Z,9.661427
2022-08-28T09:19:53.610Z,9.661428
2022-08-28T09:20:53.591Z,9.661338
2022-08-28T09:21:53.697Z,9.661412
2022-08-28T09:22:53.592Z,9.661443
2022-08-28T09:23:53.574Z,9.661386
2022-08-28T09:24:53.564Z,9.661434
2022-08-28T09:25:53.783Z,9.661399
2022-08-28T09:26:53.559Z,9.661512
2022-08-28T09:27:53.588Z,9.661560
2022-08-28T09:28:53.608Z,9.661621
2022-08-28T09:29:53.552Z,9.661573
2022-08-28T09:30:53.550Z,9.661596
2022-08-28T09:31:53.540Z,9.661607
2022-08-28T09:32:53.577Z,9.661626
2022-08-28T09:34:00.387Z,9.661440
2022-08-28T09:34:53.526Z,9.661449
2022-08-28T09:35:53.526Z,9.661427
2022-08-28T09:36:53.508Z,9.661531
2022-08-28T09:37:53.516Z,9.661733
2022-08-28T09:38:53.747Z,9.661617
2022-08-28T09:39:53.538Z,9.661546
2022-08-28T09:40:53.514Z,9.661657
2022-08-28T09:41:53.512Z,9.661625
2022-08-28T09:42:54.336Z,9.661680
2022-08-28T09:43:53.517Z,9.661645
2022-08-28T09:44:53.526Z,9.661600
2022-08-28T09:45:53.531Z,9.661588
2022-08-28T09:46:53.488Z,9.661619
2022-08-28T09:47:53.475Z,9.661588
2022-08-28T09:48:53.461Z,9.661578
2022-08-28T09:49:53.474Z,9.661629
2022-08-28T09:50:53.464Z,9.661636
2022-08-28T09:51:53.463Z,9.661654
2022-08-28T09:52:53.439Z,9.661612
2022-08-28T09:53:53.438Z,9.661534
2022-08-28T09:54:53.760Z,9.661551
2022-08-28T09:55:53.429Z,9.661662
2022-08-28T09:56:53.499Z,9.661775
2022-08-28T09:57:53.435Z,9.661724
2022-08-28T09:58:53.440Z,9.661757
2022-08-28T09:59:53.429Z,9.661712
2022-08-28T10:00:53.560Z,9.661473
2022-08-28T10:01:53.489Z,9.661563
2022-08-28T10:02:53.407Z,9.661680
2022-08-28T10:03:53.480Z,9.661750
2022-08-28T10:04:53.398Z,9.661782
2022-08-28T10:05:53.524Z,9.661674
2022-08-28T10:06:53.400Z,9.661754
2022-08-28T10:07:53.398Z,9.661742
2022-08-28T10:08:53.393Z,9.661757
2022-08-28T10:09:53.382Z,9.661660
2022-08-28T10:10:53.352Z,9.661692
2022-08-28T10:11:53.389Z,9.661676
2022-08-28T10:12:53.358Z,9.661674
2022-08-28T10:13:53.369Z,9.661749
2022-08-28T10:14:53.336Z,9.661829
2022-08-28T10:15:53.383Z,9.661727
2022-08-28T10:16:53.489Z,9.661635
2022-08-28T10:17:53.341Z,9.661627
2022-08-28T10:18:53.325Z,9.661619
2022-08-28T10:19:53.334Z,9.661643
2022-08-28T10:20:53.324Z,9.661628
2022-08-28T10:21:53.321Z,9.661668
2022-08-28T10:22:53.429Z,9.661643
2022-08-28T10:23:53.310Z,9.661677
2022-08-28T10:24:53.294Z,9.661689
2022-08-28T10:25:53.307Z,9.661700
2022-08-28T10:26:53.281Z,9.661624
2022-08-28T10:27:53.947Z,9.661602
2022-08-28T10:28:53.282Z,9.661674
2022-08-28T10:29:53.273Z,9.661680
2022-08-28T10:30:53.398Z,9.661603
2022-08-28T10:31:53.253Z,9.661612
2022-08-28T10:32:53.267Z,9.661585
2022-08-28T10:33:53.268Z,9.661527
2022-08-28T10:34:53.253Z,9.661613
2022-08-28T10:35:53.247Z,9.661637
2022-08-28T10:36:53.253Z,9.661613
2022-08-28T10:37:53.245Z,9.661550
2022-08-28T10:38:53.335Z,9.661695
2022-08-28T10:39:53.291Z,9.661658
2022-08-28T10:40:53.221Z,9.661644
2022-08-28T10:41:53.276Z,9.661560
2022-08-28T10:42:53.214Z,9.661637
2022-08-28T10:43:53.227Z,9.661600
2022-08-28T10:44:53.348Z,9.661563
2022-08-28T10:45:53.257Z,9.661565
2022-08-28T10:46:53.413Z,9.661546
2022-08-28T10:47:53.193Z,9.661540
2022-08-28T10:48:53.200Z,9.661608
2022-08-28T10:49:53.305Z,9.661606
2022-08-28T10:50:53.176Z,9.661602
2022-08-28T10:51:53.175Z,9.661891
2022-08-28T10:52:53.178Z,9.661673
2022-08-28T10:53:53.166Z,9.661644
2022-08-28T10:54:53.142Z,9.661583
2022-08-28T10:55:53.282Z,9.661582
2022-08-28T10:56:55.965Z,9.661583
2022-08-28T10:57:53.137Z,9.661604
2022-08-28T10:58:53.179Z,9.661610
2022-08-28T10:59:53.150Z,9.661710
2022-08-28T11:00:53.127Z,9.661822
2022-08-28T11:01:53.220Z,9.661818
2022-08-28T11:02:53.151Z,9.661786
2022-08-28T11:03:53.098Z,9.661769
2022-08-28T11:04:57.772Z,9.661675
2022-08-28T11:05:55.203Z,9.661644
2022-08-28T11:06:53.094Z,9.661505
2022-08-28T11:07:53.086Z,9.661586
2022-08-28T11:08:53.076Z,9.661648
2022-08-28T11:09:53.090Z,9.661647
2022-08-28T11:10:53.063Z,9.661633
2022-08-28T11:11:53.095Z,9.661686
2022-08-28T11:12:53.071Z,9.661454
2022-08-28T11:13:53.047Z,9.661314
2022-08-28T11:14:53.052Z,9.661489
2022-08-28T11:15:53.057Z,9.661635
2022-08-28T11:16:53.097Z,9.661806
2022-08-28T11:17:53.028Z,9.661628
2022-08-28T11:18:53.034Z,9.661812
2022-08-28T11:19:53.037Z,9.661694
2022-08-28T11:20:53.021Z,9.661601
2022-08-28T11:21:53.013Z,9.661630
2022-08-28T11:22:53.039Z,9.661674
2022-08-28T11:23:52.997Z,9.661709
2022-08-28T11:24:53.007Z,9.661612
2022-08-28T11:25:52.987Z,9.661559
2022-08-28T11:26:52.992Z,9.661617
2022-08-28T11:27:53.193Z,9.661791
2022-08-28T11:28:52.977Z,9.661559
2022-08-28T11:29:52.966Z,9.661533
2022-08-28T11:30:53.000Z,9.661546
2022-08-28T11:31:52.949Z,9.661544
2022-08-28T11:32:54.069Z,9.661206
2022-08-28T11:33:52.951Z,9.661790
2022-08-28T11:34:53.824Z,9.661659
2022-08-28T11:35:52.944Z,9.661692
2022-08-28T11:36:52.941Z,9.661469
2022-08-28T11:37:52.914Z,9.661539
2022-08-28T11:38:52.971Z,9.661607
2022-08-28T11:39:53.024Z,9.661576
2022-08-28T11:40:52.939Z,9.661500
2022-08-28T11:41:52.900Z,9.661621
2022-08-28T11:42:52.908Z,9.661651
2022-08-28T11:43:52.921Z,9.661408
2022-08-28T11:44:52.917Z,9.661470